sensor_id;sensor_type;location;lat;lon;timestamp;temperature;humidity
8459;DHT22;4266;48.816;9.154;2023-05-10T00:02:10;13.80;99.90
8459;DHT22;4266;48.816;9.154;2023-05-10T00:04:36;13.80;99.90
8459;DHT22;4266;48.816;9.154;2023-05-10T00:07:01;13.80;99.90
8459;DHT22;4266;48.816;9.154;2023-05-10T00:09:28;13.70;99.90
8459;DHT22;4266;48.816;9.154;2023-05-10T00:11:53;13.70;99.90
8459;DHT22;4266;48.816;9.154;2023-05-10T00:14:20;13.60;99.90
8459;DHT22;4266;48.816;9.154;2023-05-10T00:16:45;13.60;99.90
8459;DHT22;4266;48.816;9.154;2023-05-10T00:19:11;13.50;99.90
8459;DHT22;4266;48.816;9.154;2023-05-10T00:21:37;13.40;99.90
8459;DHT22;4266;48.816;9.154;2023-05-10T00:24:04;13.40;99.90
8459;DHT22;4266;48.816;9.154;2023-05-10T00:26:36;13.40;99.90
8459;DHT22;4266;48.816;9.154;2023-05-10T00:29:03;13.30;99.90
8459;DHT22;4266;48.816;9.154;2023-05-10T00:31:29;13.30;99.90
8459;DHT22;4266;48.816;9.154;2023-05-10T00:33:54;13.20;99.90
8459;DHT22;4266;48.816;9.154;2023-05-10T00:36:21;13.20;99.90
8459;DHT22;4266;48.816;9.154;2023-05-10T00:38:46;13.10;99.90
8459;DHT22;4266;48.816;9.154;2023-05-10T00:41:13;13.00;99.90
8459;DHT22;4266;48.816;9.154;2023-05-10T00:43:38;13.00;99.90
8459;DHT22;4266;48.816;9.154;2023-05-10T00:46:04;13.10;99.90
8459;DHT22;4266;48.816;9.154;2023-05-10T00:48:30;13.00;99.90
8459;DHT22;4266;48.816;9.154;2023-05-10T00:50:57;12.90;99.90
8459;DHT22;4266;48.816;9.154;2023-05-10T00:53:23;12.80;99.90
8459;DHT22;4266;48.816;9.154;2023-05-10T00:55:48;12.90;99.90
8459;DHT22;4266;48.816;9.154;2023-05-10T00:58:14;12.80;99.90
8459;DHT22;4266;48.816;9.154;2023-05-10T01:00:41;12.80;99.90
8459;DHT22;4266;48.816;9.154;2023-05-10T01:03:06;12.80;99.90
8459;DHT22;4266;48.816;9.154;2023-05-10T01:05:32;12.70;99.90
8459;DHT22;4266;48.816;9.154;2023-05-10T01:07:58;12.80;99.90
8459;DHT22;4266;48.816;9.154;2023-05-10T01:10:24;12.70;99.90
8459;DHT22;4266;48.816;9.154;2023-05-10T01:12:50;12.80;99.90
8459;DHT22;4266;48.816;9.154;2023-05-10T01:15:16;12.80;99.90
8459;DHT22;4266;48.816;9.154;2023-05-10T01:17:42;12.80;99.90
8459;DHT22;4266;48.816;9.154;2023-05-10T01:20:08;12.80;99.90
8459;DHT22;4266;48.816;9.154;2023-05-10T01:22:52;12.70;99.90
8459;DHT22;4266;48.816;9.154;2023-05-10T01:25:27;12.70;99.90
8459;DHT22;4266;48.816;9.154;2023-05-10T01:30:55;12.70;99.90
8459;DHT22;4266;48.816;9.154;2023-05-10T01:33:19;12.80;99.90
8459;DHT22;4266;48.816;9.154;2023-05-10T01:35:47;12.70;99.90
8459;DHT22;4266;48.816;9.154;2023-05-10T01:38:29;12.70;99.90
8459;DHT22;4266;48.816;9.154;2023-05-10T01:40:59;12.70;99.90
8459;DHT22;4266;48.816;9.154;2023-05-10T01:43:22;12.70;99.90
8459;DHT22;4266;48.816;9.154;2023-05-10T01:46:02;12.70;99.90
8459;DHT22;4266;48.816;9.154;2023-05-10T01:48:26;12.60;99.90
8459;DHT22;4266;48.816;9.154;2023-05-10T01:50:52;12.60;99.90
8459;DHT22;4266;48.816;9.154;2023-05-10T01:59:15;12.60;99.90
8459;DHT22;4266;48.816;9.154;2023-05-10T02:01:40;12.60;99.90
8459;DHT22;4266;48.816;9.154;2023-05-10T02:04:07;12.60;99.90
8459;DHT22;4266;48.816;9.154;2023-05-10T02:06:31;12.60;99.90
8459;DHT22;4266;48.816;9.154;2023-05-10T02:08:57;12.50;99.90
8459;DHT22;4266;48.816;9.154;2023-05-10T02:11:23;12.50;99.90
8459;DHT22;4266;48.816;9.154;2023-05-10T02:13:49;12.50;99.90
8459;DHT22;4266;48.816;9.154;2023-05-10T02:16:14;12.50;99.90
8459;DHT22;4266;48.816;9.154;2023-05-10T02:18:40;12.50;99.90
8459;DHT22;4266;48.816;9.154;2023-05-10T02:21:06;12.50;99.90
8459;DHT22;4266;48.816;9.154;2023-05-10T02:23:32;12.40;99.90
8459;DHT22;4266;48.816;9.154;2023-05-10T02:25:57;12.50;99.90
8459;DHT22;4266;48.816;9.154;2023-05-10T02:28:24;12.50;99.90
8459;DHT22;4266;48.816;9.154;2023-05-10T02:30:49;12.40;99.90
8459;DHT22;4266;48.816;9.154;2023-05-10T02:33:15;12.50;99.90
8459;DHT22;4266;48.816;9.154;2023-05-10T02:35:41;12.40;99.90
8459;DHT22;4266;48.816;9.154;2023-05-10T02:38:06;12.40;99.90
8459;DHT22;4266;48.816;9.154;2023-05-10T02:40:32;12.40;99.90
8459;DHT22;4266;48.816;9.154;2023-05-10T02:42:58;12.40;99.90
8459;DHT22;4266;48.816;9.154;2023-05-10T02:45:25;12.50;99.90
8459;DHT22;4266;48.816;9.154;2023-05-10T02:47:50;12.40;99.90
8459;DHT22;4266;48.816;9.154;2023-05-10T02:50:16;12.40;99.90
8459;DHT22;4266;48.816;9.154;2023-05-10T02:52:44;12.40;99.90
8459;DHT22;4266;48.816;9.154;2023-05-10T02:55:09;12.50;99.90
8459;DHT22;4266;48.816;9.154;2023-05-10T02:57:35;12.50;99.90
8459;DHT22;4266;48.816;9.154;2023-05-10T03:00:01;12.50;99.90
8459;DHT22;4266;48.816;9.154;2023-05-10T03:02:26;12.50;99.90
8459;DHT22;4266;48.816;9.154;2023-05-10T03:04:52;12.50;99.90
8459;DHT22;4266;48.816;9.154;2023-05-10T03:07:17;12.50;99.90
8459;DHT22;4266;48.816;9.154;2023-05-10T03:09:43;12.40;99.90
8459;DHT22;4266;48.816;9.154;2023-05-10T03:12:15;12.30;99.90
8459;DHT22;4266;48.816;9.154;2023-05-10T03:15:07;12.50;99.90
8459;DHT22;4266;48.816;9.154;2023-05-10T03:17:37;12.40;99.90
8459;DHT22;4266;48.816;9.154;2023-05-10T03:20:04;12.50;99.90
8459;DHT22;4266;48.816;9.154;2023-05-10T03:22:31;12.50;99.90
8459;DHT22;4266;48.816;9.154;2023-05-10T03:24:56;12.50;99.90
8459;DHT22;4266;48.816;9.154;2023-05-10T03:27:22;12.50;99.90
8459;DHT22;4266;48.816;9.154;2023-05-10T03:29:47;12.50;99.90
8459;DHT22;4266;48.816;9.154;2023-05-10T03:32:13;12.50;99.90
8459;DHT22;4266;48.816;9.154;2023-05-10T03:34:41;12.40;99.90
8459;DHT22;4266;48.816;9.154;2023-05-10T03:37:07;12.40;99.90
8459;DHT22;4266;48.816;9.154;2023-05-10T03:39:32;12.40;99.90
8459;DHT22;4266;48.816;9.154;2023-05-10T03:41:58;12.40;99.90
8459;DHT22;4266;48.816;9.154;2023-05-10T03:44:24;12.40;99.90
8459;DHT22;4266;48.816;9.154;2023-05-10T03:46:49;12.50;99.90
8459;DHT22;4266;48.816;9.154;2023-05-10T03:49:15;12.50;99.90
8459;DHT22;4266;48.816;9.154;2023-05-10T03:51:41;12.50;99.90
8459;DHT22;4266;48.816;9.154;2023-05-10T03:54:06;12.50;99.90
8459;DHT22;4266;48.816;9.154;2023-05-10T03:56:32;12.40;99.90
8459;DHT22;4266;48.816;9.154;2023-05-10T03:58:58;12.40;99.90
8459;DHT22;4266;48.816;9.154;2023-05-10T04:01:25;12.30;99.90
8459;DHT22;4266;48.816;9.154;2023-05-10T04:03:51;12.40;99.90
8459;DHT22;4266;48.816;9.154;2023-05-10T04:06:17;12.40;99.90
8459;DHT22;4266;48.816;9.154;2023-05-10T04:08:42;12.40;99.90
8459;DHT22;4266;48.816;9.154;2023-05-10T04:11:10;12.40;99.90
8459;DHT22;4266;48.816;9.154;2023-05-10T04:13:35;12.40;99.90
8459;DHT22;4266;48.816;9.154;2023-05-10T04:16:00;12.40;99.90
8459;DHT22;4266;48.816;9.154;2023-05-10T04:18:26;12.40;99.90
8459;DHT22;4266;48.816;9.154;2023-05-10T04:20:51;12.40;99.90
8459;DHT22;4266;48.816;9.154;2023-05-10T04:23:17;12.30;99.90
8459;DHT22;4266;48.816;9.154;2023-05-10T04:25:43;12.40;99.90
8459;DHT22;4266;48.816;9.154;2023-05-10T04:28:09;12.30;99.90
8459;DHT22;4266;48.816;9.154;2023-05-10T04:30:35;12.50;99.90
8459;DHT22;4266;48.816;9.154;2023-05-10T04:33:01;12.50;99.90
8459;DHT22;4266;48.816;9.154;2023-05-10T04:35:28;12.50;99.90
8459;DHT22;4266;48.816;9.154;2023-05-10T04:37:54;12.50;99.90
8459;DHT22;4266;48.816;9.154;2023-05-10T04:40:20;12.50;99.90
8459;DHT22;4266;48.816;9.154;2023-05-10T04:42:45;12.50;99.90
8459;DHT22;4266;48.816;9.154;2023-05-10T04:45:11;12.50;99.90
8459;DHT22;4266;48.816;9.154;2023-05-10T04:47:36;12.60;99.90
8459;DHT22;4266;48.816;9.154;2023-05-10T04:50:03;12.50;99.90
8459;DHT22;4266;48.816;9.154;2023-05-10T04:52:28;12.60;99.90
8459;DHT22;4266;48.816;9.154;2023-05-10T04:54:54;12.60;99.90
8459;DHT22;4266;48.816;9.154;2023-05-10T04:57:20;12.80;99.90
8459;DHT22;4266;48.816;9.154;2023-05-10T04:59:46;12.80;99.90
8459;DHT22;4266;48.816;9.154;2023-05-10T05:02:14;12.90;99.90
8459;DHT22;4266;48.816;9.154;2023-05-10T05:04:40;12.90;99.90
8459;DHT22;4266;48.816;9.154;2023-05-10T05:07:06;13.00;99.90
8459;DHT22;4266;48.816;9.154;2023-05-10T05:09:32;13.00;99.90
8459;DHT22;4266;48.816;9.154;2023-05-10T05:11:58;13.20;99.90
8459;DHT22;4266;48.816;9.154;2023-05-10T05:14:23;13.20;99.90
8459;DHT22;4266;48.816;9.154;2023-05-10T05:16:49;13.20;99.90
8459;DHT22;4266;48.816;9.154;2023-05-10T05:19:14;14.70;99.90
8459;DHT22;4266;48.816;9.154;2023-05-10T05:21:40;14.30;99.90
8459;DHT22;4266;48.816;9.154;2023-05-10T05:24:07;13.80;99.90
8459;DHT22;4266;48.816;9.154;2023-05-10T05:26:32;13.70;99.90
8459;DHT22;4266;48.816;9.154;2023-05-10T05:28:58;13.80;99.90
8459;DHT22;4266;48.816;9.154;2023-05-10T05:31:24;13.70;99.90
8459;DHT22;4266;48.816;9.154;2023-05-10T05:33:49;13.80;99.90
8459;DHT22;4266;48.816;9.154;2023-05-10T05:36:16;15.10;99.90
8459;DHT22;4266;48.816;9.154;2023-05-10T05:38:42;15.10;99.90
8459;DHT22;4266;48.816;9.154;2023-05-10T05:41:07;16.50;99.90
8459;DHT22;4266;48.816;9.154;2023-05-10T05:43:33;16.50;99.90
8459;DHT22;4266;48.816;9.154;2023-05-10T05:46:01;17.20;99.90
8459;DHT22;4266;48.816;9.154;2023-05-10T05:48:27;17.70;99.90
8459;DHT22;4266;48.816;9.154;2023-05-10T05:50:54;17.30;99.90
8459;DHT22;4266;48.816;9.154;2023-05-10T05:53:19;17.40;99.90
8459;DHT22;4266;48.816;9.154;2023-05-10T05:55:52;17.00;99.90
8459;DHT22;4266;48.816;9.154;2023-05-10T05:58:17;17.40;99.90
8459;DHT22;4266;48.816;9.154;2023-05-10T06:00:43;17.40;99.90
8459;DHT22;4266;48.816;9.154;2023-05-10T06:03:09;17.10;99.90
8459;DHT22;4266;48.816;9.154;2023-05-10T06:05:35;16.70;99.90
8459;DHT22;4266;48.816;9.154;2023-05-10T06:08:01;16.60;99.90
8459;DHT22;4266;48.816;9.154;2023-05-10T06:10:26;16.90;99.90
8459;DHT22;4266;48.816;9.154;2023-05-10T06:12:52;17.10;99.90
8459;DHT22;4266;48.816;9.154;2023-05-10T06:15:18;16.80;99.90
8459;DHT22;4266;48.816;9.154;2023-05-10T06:17:43;16.70;99.90
8459;DHT22;4266;48.816;9.154;2023-05-10T06:20:11;16.70;99.90
8459;DHT22;4266;48.816;9.154;2023-05-10T06:22:37;16.70;99.90
8459;DHT22;4266;48.816;9.154;2023-05-10T06:25:02;17.40;99.90
8459;DHT22;4266;48.816;9.154;2023-05-10T06:27:28;17.10;99.90
8459;DHT22;4266;48.816;9.154;2023-05-10T06:29:54;17.50;99.90
8459;DHT22;4266;48.816;9.154;2023-05-10T06:32:20;16.70;99.90
8459;DHT22;4266;48.816;9.154;2023-05-10T06:34:46;16.60;99.90
8459;DHT22;4266;48.816;9.154;2023-05-10T06:37:11;15.70;99.90
8459;DHT22;4266;48.816;9.154;2023-05-10T06:39:37;15.40;99.90
8459;DHT22;4266;48.816;9.154;2023-05-10T06:42:03;15.20;99.90
8459;DHT22;4266;48.816;9.154;2023-05-10T06:44:29;15.00;99.90
8459;DHT22;4266;48.816;9.154;2023-05-10T06:46:54;15.00;99.90
8459;DHT22;4266;48.816;9.154;2023-05-10T06:49:20;15.00;99.90
8459;DHT22;4266;48.816;9.154;2023-05-10T06:51:46;14.80;99.90
8459;DHT22;4266;48.816;9.154;2023-05-10T06:54:11;14.80;99.90
8459;DHT22;4266;48.816;9.154;2023-05-10T06:56:37;14.70;99.90
8459;DHT22;4266;48.816;9.154;2023-05-10T06:59:03;14.60;99.90
8459;DHT22;4266;48.816;9.154;2023-05-10T07:01:29;14.80;99.90
8459;DHT22;4266;48.816;9.154;2023-05-10T07:03:55;14.80;99.90
8459;DHT22;4266;48.816;9.154;2023-05-10T07:06:20;15.00;99.90
8459;DHT22;4266;48.816;9.154;2023-05-10T07:08:47;15.10;99.90
8459;DHT22;4266;48.816;9.154;2023-05-10T07:11:12;15.10;99.90
8459;DHT22;4266;48.816;9.154;2023-05-10T07:13:38;15.30;99.90
8459;DHT22;4266;48.816;9.154;2023-05-10T07:16:05;15.50;99.90
8459;DHT22;4266;48.816;9.154;2023-05-10T07:18:31;15.60;99.90
8459;DHT22;4266;48.816;9.154;2023-05-10T07:20:57;15.60;99.90
8459;DHT22;4266;48.816;9.154;2023-05-10T07:23:22;15.80;99.90
8459;DHT22;4266;48.816;9.154;2023-05-10T07:25:49;15.80;99.90
8459;DHT22;4266;48.816;9.154;2023-05-10T07:28:14;15.90;99.90
8459;DHT22;4266;48.816;9.154;2023-05-10T07:30:40;16.40;99.90
8459;DHT22;4266;48.816;9.154;2023-05-10T07:33:06;16.40;99.90
8459;DHT22;4266;48.816;9.154;2023-05-10T07:35:32;16.40;99.90
8459;DHT22;4266;48.816;9.154;2023-05-10T07:37:58;16.40;99.90
8459;DHT22;4266;48.816;9.154;2023-05-10T07:40:23;16.40;99.90
8459;DHT22;4266;48.816;9.154;2023-05-10T07:42:49;16.60;99.90
8459;DHT22;4266;48.816;9.154;2023-05-10T07:45:15;16.70;99.90
8459;DHT22;4266;48.816;9.154;2023-05-10T07:47:40;16.80;99.90
8459;DHT22;4266;48.816;9.154;2023-05-10T07:50:07;16.80;99.90
8459;DHT22;4266;48.816;9.154;2023-05-10T07:52:33;16.90;99.90
8459;DHT22;4266;48.816;9.154;2023-05-10T07:54:58;17.00;99.90
8459;DHT22;4266;48.816;9.154;2023-05-10T07:57:25;16.80;99.90
8459;DHT22;4266;48.816;9.154;2023-05-10T07:59:50;16.80;99.90
8459;DHT22;4266;48.816;9.154;2023-05-10T08:02:17;17.00;99.40
8459;DHT22;4266;48.816;9.154;2023-05-10T08:04:43;16.90;99.40
8459;DHT22;4266;48.816;9.154;2023-05-10T08:07:08;16.70;99.70
8459;DHT22;4266;48.816;9.154;2023-05-10T08:09:34;16.70;99.50
8459;DHT22;4266;48.816;9.154;2023-05-10T08:12:00;16.80;99.90
8459;DHT22;4266;48.816;9.154;2023-05-10T08:14:27;16.70;99.90
8459;DHT22;4266;48.816;9.154;2023-05-10T08:16:51;16.70;99.40
8459;DHT22;4266;48.816;9.154;2023-05-10T08:19:17;16.70;99.70
8459;DHT22;4266;48.816;9.154;2023-05-10T08:21:43;16.70;98.90
8459;DHT22;4266;48.816;9.154;2023-05-10T08:24:09;16.70;98.80
8459;DHT22;4266;48.816;9.154;2023-05-10T08:26:36;16.90;98.80
8459;DHT22;4266;48.816;9.154;2023-05-10T08:29:01;16.90;98.80
8459;DHT22;4266;48.816;9.154;2023-05-10T08:31:27;16.90;97.90
8459;DHT22;4266;48.816;9.154;2023-05-10T08:33:53;16.90;97.90
8459;DHT22;4266;48.816;9.154;2023-05-10T08:36:19;17.10;97.50
8459;DHT22;4266;48.816;9.154;2023-05-10T08:38:45;17.10;97.50
8459;DHT22;4266;48.816;9.154;2023-05-10T08:41:10;17.20;98.60
8459;DHT22;4266;48.816;9.154;2023-05-10T08:43:36;17.30;97.90
8459;DHT22;4266;48.816;9.154;2023-05-10T08:46:02;17.30;97.20
8459;DHT22;4266;48.816;9.154;2023-05-10T08:48:29;17.20;97.40
8459;DHT22;4266;48.816;9.154;2023-05-10T08:50:53;17.60;97.80
8459;DHT22;4266;48.816;9.154;2023-05-10T08:53:19;17.90;97.00
8459;DHT22;4266;48.816;9.154;2023-05-10T08:55:45;18.30;97.00
8459;DHT22;4266;48.816;9.154;2023-05-10T08:58:11;18.20;96.90
8459;DHT22;4266;48.816;9.154;2023-05-10T09:00:37;18.20;97.10
8459;DHT22;4266;48.816;9.154;2023-05-10T09:03:04;18.20;97.10
8459;DHT22;4266;48.816;9.154;2023-05-10T09:05:28;18.20;97.40
8459;DHT22;4266;48.816;9.154;2023-05-10T09:07:54;18.20;96.60
8459;DHT22;4266;48.816;9.154;2023-05-10T09:10:20;18.30;96.10
8459;DHT22;4266;48.816;9.154;2023-05-10T09:12:46;18.70;96.80
8459;DHT22;4266;48.816;9.154;2023-05-10T09:15:12;19.00;95.90
8459;DHT22;4266;48.816;9.154;2023-05-10T09:17:38;18.80;95.50
8459;DHT22;4266;48.816;9.154;2023-05-10T09:20:03;19.00;95.60
8459;DHT22;4266;48.816;9.154;2023-05-10T09:22:30;18.90;95.70
8459;DHT22;4266;48.816;9.154;2023-05-10T09:25:18;18.60;94.70
8459;DHT22;4266;48.816;9.154;2023-05-10T09:27:45;18.60;94.70
8459;DHT22;4266;48.816;9.154;2023-05-10T09:30:11;18.70;94.90
8459;DHT22;4266;48.816;9.154;2023-05-10T09:32:40;18.80;96.40
8459;DHT22;4266;48.816;9.154;2023-05-10T09:35:10;18.80;96.40
8459;DHT22;4266;48.816;9.154;2023-05-10T09:37:35;19.00;94.80
8459;DHT22;4266;48.816;9.154;2023-05-10T09:40:03;19.20;94.90
8459;DHT22;4266;48.816;9.154;2023-05-10T09:42:26;19.40;94.30
8459;DHT22;4266;48.816;9.154;2023-05-10T09:44:52;19.50;94.50
8459;DHT22;4266;48.816;9.154;2023-05-10T09:47:18;19.80;94.50
8459;DHT22;4266;48.816;9.154;2023-05-10T09:49:48;19.90;94.50
8459;DHT22;4266;48.816;9.154;2023-05-10T09:52:10;20.10;94.40
8459;DHT22;4266;48.816;9.154;2023-05-10T09:54:36;20.00;93.10
8459;DHT22;4266;48.816;9.154;2023-05-10T09:57:02;20.00;93.10
8459;DHT22;4266;48.816;9.154;2023-05-10T09:59:28;20.30;92.90
8459;DHT22;4266;48.816;9.154;2023-05-10T10:01:56;21.10;93.60
8459;DHT22;4266;48.816;9.154;2023-05-10T10:04:21;21.20;92.50
8459;DHT22;4266;48.816;9.154;2023-05-10T10:06:47;21.20;92.80
8459;DHT22;4266;48.816;9.154;2023-05-10T10:09:12;20.70;93.30
8459;DHT22;4266;48.816;9.154;2023-05-10T10:11:38;20.60;92.90
8459;DHT22;4266;48.816;9.154;2023-05-10T10:14:04;20.30;92.80
8459;DHT22;4266;48.816;9.154;2023-05-10T10:16:29;19.90;92.80
8459;DHT22;4266;48.816;9.154;2023-05-10T10:18:55;19.70;93.20
8459;DHT22;4266;48.816;9.154;2023-05-10T10:21:21;19.70;93.50
8459;DHT22;4266;48.816;9.154;2023-05-10T10:23:46;19.80;92.90
8459;DHT22;4266;48.816;9.154;2023-05-10T10:26:12;19.70;94.00
8459;DHT22;4266;48.816;9.154;2023-05-10T10:28:44;20.40;93.30
8459;DHT22;4266;48.816;9.154;2023-05-10T10:31:15;20.80;92.70
8459;DHT22;4266;48.816;9.154;2023-05-10T10:33:51;20.70;92.60
8459;DHT22;4266;48.816;9.154;2023-05-10T10:36:15;20.90;93.40
8459;DHT22;4266;48.816;9.154;2023-05-10T10:39:01;20.80;93.00
8459;DHT22;4266;48.816;9.154;2023-05-10T10:41:31;20.80;93.50
8459;DHT22;4266;48.816;9.154;2023-05-10T10:46:33;22.80;91.70
8459;DHT22;4266;48.816;9.154;2023-05-10T10:49:08;24.00;91.30
8459;DHT22;4266;48.816;9.154;2023-05-10T10:51:38;23.00;90.50
8459;DHT22;4266;48.816;9.154;2023-05-10T10:54:08;21.50;90.70
8459;DHT22;4266;48.816;9.154;2023-05-10T10:56:33;21.50;90.70
8459;DHT22;4266;48.816;9.154;2023-05-10T10:58:59;21.00;91.00
8459;DHT22;4266;48.816;9.154;2023-05-10T11:01:25;21.30;91.60
8459;DHT22;4266;48.816;9.154;2023-05-10T11:06:39;22.10;87.20
8459;DHT22;4266;48.816;9.154;2023-05-10T11:09:07;22.00;85.90
8459;DHT22;4266;48.816;9.154;2023-05-10T11:11:32;21.10;86.90
8459;DHT22;4266;48.816;9.154;2023-05-10T11:14:03;20.30;88.50
8459;DHT22;4266;48.816;9.154;2023-05-10T11:16:28;20.30;88.50
8459;DHT22;4266;48.816;9.154;2023-05-10T11:19:07;19.40;88.70
8459;DHT22;4266;48.816;9.154;2023-05-10T11:21:33;19.20;89.40
8459;DHT22;4266;48.816;9.154;2023-05-10T11:23:59;19.20;89.40
8459;DHT22;4266;48.816;9.154;2023-05-10T11:26:24;19.30;90.00
8459;DHT22;4266;48.816;9.154;2023-05-10T11:28:51;19.10;89.30
8459;DHT22;4266;48.816;9.154;2023-05-10T11:31:17;19.60;89.80
8459;DHT22;4266;48.816;9.154;2023-05-10T11:33:43;19.50;89.60
8459;DHT22;4266;48.816;9.154;2023-05-10T11:36:10;20.30;88.60
8459;DHT22;4266;48.816;9.154;2023-05-10T11:38:34;20.20;90.20
8459;DHT22;4266;48.816;9.154;2023-05-10T11:41:00;20.00;89.40
8459;DHT22;4266;48.816;9.154;2023-05-10T11:43:26;20.30;89.60
8459;DHT22;4266;48.816;9.154;2023-05-10T11:45:52;20.30;89.50
8459;DHT22;4266;48.816;9.154;2023-05-10T11:48:18;20.00;87.70
8459;DHT22;4266;48.816;9.154;2023-05-10T11:50:44;20.00;87.70
8459;DHT22;4266;48.816;9.154;2023-05-10T11:53:09;19.70;88.50
8459;DHT22;4266;48.816;9.154;2023-05-10T11:55:35;19.50;89.90
8459;DHT22;4266;48.816;9.154;2023-05-10T11:58:01;19.20;90.00
8459;DHT22;4266;48.816;9.154;2023-05-10T12:00:26;18.90;90.20
8459;DHT22;4266;48.816;9.154;2023-05-10T12:02:52;18.60;90.90
8459;DHT22;4266;48.816;9.154;2023-05-10T12:05:18;18.70;90.50
8459;DHT22;4266;48.816;9.154;2023-05-10T12:07:43;18.60;90.50
8459;DHT22;4266;48.816;9.154;2023-05-10T12:10:11;18.70;91.20
8459;DHT22;4266;48.816;9.154;2023-05-10T12:12:41;18.50;90.30
8459;DHT22;4266;48.816;9.154;2023-05-10T12:15:08;18.40;90.30
8459;DHT22;4266;48.816;9.154;2023-05-10T12:17:32;18.70;90.40
8459;DHT22;4266;48.816;9.154;2023-05-10T12:19:59;18.80;90.00
8459;DHT22;4266;48.816;9.154;2023-05-10T12:22:24;18.90;90.10
8459;DHT22;4266;48.816;9.154;2023-05-10T12:24:50;19.10;90.60
8459;DHT22;4266;48.816;9.154;2023-05-10T12:27:15;19.20;89.80
8459;DHT22;4266;48.816;9.154;2023-05-10T12:29:41;19.00;89.30
8459;DHT22;4266;48.816;9.154;2023-05-10T12:32:06;19.20;89.60
8459;DHT22;4266;48.816;9.154;2023-05-10T12:34:33;19.20;89.50
8459;DHT22;4266;48.816;9.154;2023-05-10T12:36:59;19.60;90.10
8459;DHT22;4266;48.816;9.154;2023-05-10T12:39:24;19.20;86.00
8459;DHT22;4266;48.816;9.154;2023-05-10T12:41:50;19.30;86.40
8459;DHT22;4266;48.816;9.154;2023-05-10T12:44:16;19.50;86.80
8459;DHT22;4266;48.816;9.154;2023-05-10T12:46:41;19.60;88.80
8459;DHT22;4266;48.816;9.154;2023-05-10T12:49:07;19.70;88.00
8459;DHT22;4266;48.816;9.154;2023-05-10T12:51:33;19.50;86.80
8459;DHT22;4266;48.816;9.154;2023-05-10T12:53:59;19.50;86.80
8459;DHT22;4266;48.816;9.154;2023-05-10T12:56:25;19.20;88.60
8459;DHT22;4266;48.816;9.154;2023-05-10T12:58:51;19.20;88.50
8459;DHT22;4266;48.816;9.154;2023-05-10T13:01:17;19.20;88.20
8459;DHT22;4266;48.816;9.154;2023-05-10T13:03:43;18.90;87.70
8459;DHT22;4266;48.816;9.154;2023-05-10T13:06:08;18.70;87.60
8459;DHT22;4266;48.816;9.154;2023-05-10T13:08:34;18.60;87.80
8459;DHT22;4266;48.816;9.154;2023-05-10T13:11:02;18.50;88.50
8459;DHT22;4266;48.816;9.154;2023-05-10T13:13:26;18.40;88.40
8459;DHT22;4266;48.816;9.154;2023-05-10T13:15:52;18.00;88.30
8459;DHT22;4266;48.816;9.154;2023-05-10T13:18:21;18.00;88.30
8459;DHT22;4266;48.816;9.154;2023-05-10T13:20:48;17.90;88.40
8459;DHT22;4266;48.816;9.154;2023-05-10T13:23:13;17.90;88.10
8459;DHT22;4266;48.816;9.154;2023-05-10T13:25:39;17.90;88.50
8459;DHT22;4266;48.816;9.154;2023-05-10T13:28:04;18.00;89.80
8459;DHT22;4266;48.816;9.154;2023-05-10T13:30:30;18.10;90.00
8459;DHT22;4266;48.816;9.154;2023-05-10T13:32:56;18.20;88.00
8459;DHT22;4266;48.816;9.154;2023-05-10T13:35:21;18.20;89.00
8459;DHT22;4266;48.816;9.154;2023-05-10T13:37:47;18.20;88.00
8459;DHT22;4266;48.816;9.154;2023-05-10T13:40:13;18.20;87.60
8459;DHT22;4266;48.816;9.154;2023-05-10T13:42:39;18.60;88.40
8459;DHT22;4266;48.816;9.154;2023-05-10T13:45:05;18.60;88.40
8459;DHT22;4266;48.816;9.154;2023-05-10T13:47:31;18.70;88.90
8459;DHT22;4266;48.816;9.154;2023-05-10T13:49:57;18.80;89.00
8459;DHT22;4266;48.816;9.154;2023-05-10T13:52:23;18.50;89.20
8459;DHT22;4266;48.816;9.154;2023-05-10T13:54:49;18.50;88.20
8459;DHT22;4266;48.816;9.154;2023-05-10T13:57:15;18.40;87.10
8459;DHT22;4266;48.816;9.154;2023-05-10T13:59:41;18.40;87.10
8459;DHT22;4266;48.816;9.154;2023-05-10T14:02:06;18.40;87.60
8459;DHT22;4266;48.816;9.154;2023-05-10T14:04:32;18.30;87.80
8459;DHT22;4266;48.816;9.154;2023-05-10T14:06:58;18.40;86.60
8459;DHT22;4266;48.816;9.154;2023-05-10T14:09:24;18.40;86.50
8459;DHT22;4266;48.816;9.154;2023-05-10T14:11:50;18.40;86.40
8459;DHT22;4266;48.816;9.154;2023-05-10T14:14:15;18.40;86.10
8459;DHT22;4266;48.816;9.154;2023-05-10T14:16:43;18.80;88.60
8459;DHT22;4266;48.816;9.154;2023-05-10T14:19:09;19.00;86.20
8459;DHT22;4266;48.816;9.154;2023-05-10T14:21:35;19.00;86.20
8459;DHT22;4266;48.816;9.154;2023-05-10T14:24:00;19.20;87.10
8459;DHT22;4266;48.816;9.154;2023-05-10T14:26:26;19.00;83.20
8459;DHT22;4266;48.816;9.154;2023-05-10T14:28:53;18.80;83.90
8459;DHT22;4266;48.816;9.154;2023-05-10T14:31:18;18.80;83.80
8459;DHT22;4266;48.816;9.154;2023-05-10T14:33:44;18.80;83.40
8459;DHT22;4266;48.816;9.154;2023-05-10T14:36:09;18.70;83.90
8459;DHT22;4266;48.816;9.154;2023-05-10T14:38:35;18.80;84.20
8459;DHT22;4266;48.816;9.154;2023-05-10T14:41:02;18.70;83.80
8459;DHT22;4266;48.816;9.154;2023-05-10T14:43:27;18.70;83.80
8459;DHT22;4266;48.816;9.154;2023-05-10T14:45:53;18.70;83.10
8459;DHT22;4266;48.816;9.154;2023-05-10T14:48:19;18.70;83.30
8459;DHT22;4266;48.816;9.154;2023-05-10T14:50:44;18.90;83.90
8459;DHT22;4266;48.816;9.154;2023-05-10T14:53:11;18.70;83.60
8459;DHT22;4266;48.816;9.154;2023-05-10T14:55:36;18.70;83.60
8459;DHT22;4266;48.816;9.154;2023-05-10T14:58:02;18.80;83.50
8459;DHT22;4266;48.816;9.154;2023-05-10T15:00:28;18.80;84.00
8459;DHT22;4266;48.816;9.154;2023-05-10T15:02:54;18.60;84.50
8459;DHT22;4266;48.816;9.154;2023-05-10T15:05:19;18.60;84.40
8459;DHT22;4266;48.816;9.154;2023-05-10T15:07:45;18.60;85.70
8459;DHT22;4266;48.816;9.154;2023-05-10T15:10:11;18.70;86.60
8459;DHT22;4266;48.816;9.154;2023-05-10T15:12:37;18.70;87.60
8459;DHT22;4266;48.816;9.154;2023-05-10T15:15:02;18.80;85.30
8459;DHT22;4266;48.816;9.154;2023-05-10T15:17:28;18.80;87.30
8459;DHT22;4266;48.816;9.154;2023-05-10T15:19:54;18.80;87.60
8459;DHT22;4266;48.816;9.154;2023-05-10T15:22:19;18.80;86.40
8459;DHT22;4266;48.816;9.154;2023-05-10T15:24:45;18.80;87.60
8459;DHT22;4266;48.816;9.154;2023-05-10T15:27:11;18.60;87.40
8459;DHT22;4266;48.816;9.154;2023-05-10T15:29:37;18.60;87.30
8459;DHT22;4266;48.816;9.154;2023-05-10T15:32:03;18.80;86.70
8459;DHT22;4266;48.816;9.154;2023-05-10T15:34:29;18.80;85.90
8459;DHT22;4266;48.816;9.154;2023-05-10T15:36:55;18.80;86.70
8459;DHT22;4266;48.816;9.154;2023-05-10T15:39:21;18.70;86.60
8459;DHT22;4266;48.816;9.154;2023-05-10T15:41:46;18.70;86.70
8459;DHT22;4266;48.816;9.154;2023-05-10T15:44:12;18.50;89.10
8459;DHT22;4266;48.816;9.154;2023-05-10T15:46:38;18.50;89.40
8459;DHT22;4266;48.816;9.154;2023-05-10T15:49:04;18.50;88.30
8459;DHT22;4266;48.816;9.154;2023-05-10T15:51:30;18.50;88.30
8459;DHT22;4266;48.816;9.154;2023-05-10T15:53:55;18.50;86.10
8459;DHT22;4266;48.816;9.154;2023-05-10T15:56:21;18.40;87.10
8459;DHT22;4266;48.816;9.154;2023-05-10T15:58:47;18.50;87.20
8459;DHT22;4266;48.816;9.154;2023-05-10T16:01:13;18.40;87.00
8459;DHT22;4266;48.816;9.154;2023-05-10T16:03:39;18.30;87.20
8459;DHT22;4266;48.816;9.154;2023-05-10T16:06:05;18.30;87.30
8459;DHT22;4266;48.816;9.154;2023-05-10T16:08:31;18.30;86.90
8459;DHT22;4266;48.816;9.154;2023-05-10T16:10:58;18.20;88.50